Time;durP1;ratioP1;P1;durP2;ratioP2;P2;SDS_P1;SDS_P2;PMS_P1;PMS_P2;Temp;Humidity;BMP_temperature;BMP_pressure;BME280_temperature;BME280_humidity;BME280_pressure;Samples;Min_cycle;Max_cycle;Signal;HPM_P1;HPM_P2
2022/07/05 00:01:27;;;;;;;2.63;1.90;;;17.00;99.90;;;;;;5030635;28;20034;-63
2022/07/05 00:03:53;;;;;;;2.95;2.08;;;17.00;99.90;;;;;;5031058;28;20038;-63
2022/07/05 00:06:20;;;;;;;5.57;2.30;;;17.00;99.90;;;;;;5029859;28;20052;-63
2022/07/05 00:08:47;;;;;;;4.88;2.42;;;17.00;99.90;;;;;;5030930;28;20046;-63
2022/07/05 00:11:14;;;;;;;5.38;1.92;;;17.00;99.90;;;;;;5030730;28;20521;-63
2022/07/05 00:13:41;;;;;;;7.88;2.22;;;17.00;99.90;;;;;;5031068;28;20048;-63
2022/07/05 00:16:07;;;;;;;2.80;2.15;;;17.00;99.90;;;;;;5029509;28;20029;-63
2022/07/05 00:18:34;;;;;;;3.50;2.40;;;17.00;99.90;;;;;;5030727;28;20042;-63
2022/07/05 00:21:01;;;;;;;2.95;1.85;;;16.90;99.90;;;;;;5030733;28;20045;-63
2022/07/05 00:23:28;;;;;;;3.75;2.25;;;17.00;99.90;;;;;;5030334;28;20041;-63
2022/07/05 00:25:55;;;;;;;8.40;2.65;;;16.90;99.90;;;;;;5030752;28;20414;-63
2022/07/05 00:28:21;;;;;;;3.85;1.90;;;16.90;99.90;;;;;;5030829;28;20514;-63
2022/07/05 00:30:48;;;;;;;2.85;2.20;;;16.90;99.90;;;;;;5012439;28;20129;-63
2022/07/05 00:33:15;;;;;;;2.28;2.00;;;16.90;99.90;;;;;;5029581;28;20394;-63
2022/07/05 00:35:42;;;;;;;4.72;2.33;;;16.90;99.90;;;;;;5021151;28;20516;-63
2022/07/05 00:38:09;;;;;;;3.30;2.10;;;16.90;99.90;;;;;;5013029;28;20518;-63
2022/07/05 00:40:36;;;;;;;10.07;2.30;;;16.90;99.90;;;;;;5029362;28;20057;-63
2022/07/05 00:43:03;;;;;;;5.72;2.50;;;16.80;99.90;;;;;;5020888;28;20129;-63
2022/07/05 00:45:30;;;;;;;3.42;2.65;;;16.80;99.90;;;;;;5030461;28;20046;-63
2022/07/05 00:47:57;;;;;;;5.03;2.83;;;16.80;99.90;;;;;;5031490;28;20045;-63
2022/07/05 00:50:24;;;;;;;4.35;2.90;;;16.80;99.90;;;;;;5033037;28;20595;-63
2022/07/05 00:52:54;;;;;;;6.63;2.88;;;16.80;99.90;;;;;;5034549;28;20056;-63
2022/07/05 00:55:21;;;;;;;5.90;2.60;;;16.80;99.90;;;;;;5016851;28;20099;-63
2022/07/05 00:57:49;;;;;;;4.10;2.40;;;16.80;99.90;;;;;;5034155;28;20056;-63
2022/07/05 01:00:16;;;;;;;5.55;2.60;;;16.80;99.90;;;;;;5032759;28;20641;-63
2022/07/05 01:02:43;;;;;;;5.60;1.70;;;16.80;99.90;;;;;;5034081;28;20041;-63
2022/07/05 01:05:10;;;;;;;5.38;2.03;;;16.90;99.90;;;;;;5016634;28;20445;-63
2022/07/05 01:07:37;;;;;;;6.35;1.77;;;16.80;99.90;;;;;;5033040;28;20041;-63
2022/07/05 01:10:04;;;;;;;7.72;2.58;;;16.80;99.90;;;;;;5024629;28;20049;-63
2022/07/05 01:12:31;;;;;;;;;;;16.80;99.90;;;;;;5034251;28;20424;-63
2022/07/05 01:14:58;;;;;;;3.67;2.75;;;16.80;99.90;;;;;;5031874;28;19921;-63
2022/07/05 01:17:25;;;;;;;4.50;2.60;;;16.80;99.90;;;;;;5033951;28;20053;-63
2022/07/05 01:19:53;;;;;;;3.85;2.47;;;16.80;99.90;;;;;;5033599;28;20048;-63
2022/07/05 01:22:22;;;;;;;6.68;2.65;;;16.80;99.90;;;;;;5016014;28;20517;-63
2022/07/05 01:24:50;;;;;;;3.28;2.30;;;16.90;99.90;;;;;;5032381;28;20046;-63
2022/07/05 01:27:19;;;;;;;2.53;1.60;;;16.80;99.90;;;;;;5011879;28;20498;-63
2022/07/05 01:29:46;;;;;;;4.18;1.80;;;16.80;99.90;;;;;;5034847;28;20056;-63
2022/07/05 01:32:13;;;;;;;3.20;1.80;;;16.80;99.90;;;;;;5015758;28;20049;-63
2022/07/05 01:34:41;;;;;;;3.97;2.60;;;16.80;99.90;;;;;;5032438;28;20045;-63
2022/07/05 01:37:09;;;;;;;3.45;2.28;;;16.80;99.90;;;;;;5033840;28;20041;-62
2022/07/05 01:39:37;;;;;;;4.38;2.40;;;16.80;99.90;;;;;;5033529;28;20041;-63
2022/07/05 01:42:04;;;;;;;3.78;2.78;;;16.80;99.90;;;;;;5033300;28;20517;-63
2022/07/05 01:44:31;;;;;;;;;;;16.80;99.90;;;;;;5032863;28;20057;-63
2022/07/05 01:47:03;;;;;;;7.32;2.10;;;16.90;99.90;;;;;;5033563;28;19967;-63
2022/07/05 01:49:38;;;;;;;4.03;2.42;;;16.90;99.90;;;;;;5033261;28;20117;-63
2022/07/05 01:52:10;;;;;;;7.63;2.00;;;16.90;99.90;;;;;;5033196;28;20065;-63
2022/07/05 01:54:39;;;;;;;4.47;1.73;;;16.90;99.90;;;;;;5038100;28;20042;-63
2022/07/05 01:57:07;;;;;;;1.92;1.00;;;16.90;99.90;;;;;;4995970;28;20560;-63
2022/07/05 01:59:35;;;;;;;;;;;16.90;99.90;;;;;;5012017;28;20077;-63
2022/07/05 02:02:03;;;;;;;2.20;1.15;;;16.80;99.90;;;;;;5013153;28;19925;-63
2022/07/05 02:04:30;;;;;;;5.65;1.20;;;16.80;99.90;;;;;;5028738;28;20667;-63
2022/07/05 02:06:57;;;;;;;2.17;1.23;;;16.80;99.90;;;;;;5016164;28;20063;-63
2022/07/05 02:09:25;;;;;;;2.75;1.65;;;16.80;99.90;;;;;;5032046;28;20042;-63
2022/07/05 02:11:52;;;;;;;4.03;1.70;;;16.80;99.90;;;;;;5012417;28;20084;-63
2022/07/05 02:14:19;;;;;;;2.10;1.10;;;16.70;99.90;;;;;;5023187;28;20037;-62
2022/07/05 02:16:46;;;;;;;1.85;1.10;;;16.80;99.90;;;;;;5015182;28;20045;-63
2022/07/05 02:19:14;;;;;;;2.55;0.70;;;16.80;99.90;;;;;;5014044;28;20050;-63
2022/07/05 02:21:42;;;;;;;2.35;1.25;;;16.70;99.90;;;;;;5030934;28;20042;-62
2022/07/05 02:24:14;;;;;;;1.77;1.10;;;16.70;99.90;;;;;;5015225;28;20524;-63
2022/07/05 02:26:50;;;;;;;4.18;1.20;;;16.80;99.90;;;;;;5015249;28;20132;-62
2022/07/05 02:29:17;;;;;;;2.92;1.25;;;16.70;99.90;;;;;;5016285;28;20452;-62
2022/07/05 02:31:45;;;;;;;1.92;1.00;;;16.70;99.90;;;;;;5033374;28;20410;-62
2022/07/05 02:34:12;;;;;;;2.15;1.20;;;16.70;99.90;;;;;;5014843;28;20045;-62
2022/07/05 02:36:41;;;;;;;2.65;1.10;;;16.60;99.90;;;;;;5014033;28;20253;-62
2022/07/05 02:39:11;;;;;;;3.58;2.42;;;16.60;99.90;;;;;;5055461;22;20076;-62
2022/07/05 02:41:38;;;;;;;4.97;2.42;;;16.60;99.90;;;;;;5049600;28;20041;-62
2022/07/05 02:44:06;;;;;;;2.13;1.55;;;16.70;99.90;;;;;;5038641;28;20506;-62
2022/07/05 02:46:32;;;;;;;4.13;1.08;;;16.70;99.90;;;;;;5032236;28;20053;-62
2022/07/05 02:49:02;;;;;;;1.77;1.40;;;16.70;99.90;;;;;;5059857;28;20672;-62
2022/07/05 02:51:32;;;;;;;1.90;1.20;;;16.70;99.90;;;;;;5050833;28;20066;-62
2022/07/05 02:54:00;;;;;;;3.95;1.20;;;16.70;99.90;;;;;;5050776;28;20402;-61
2022/07/05 02:56:29;;;;;;;3.03;1.45;;;16.60;99.90;;;;;;5053804;28;20032;-62
2022/07/05 02:58:57;;;;;;;2.08;1.40;;;16.70;99.90;;;;;;5068051;28;20044;-62
2022/07/05 03:01:25;;;;;;;3.60;1.30;;;16.70;99.90;;;;;;5033651;28;20045;-62
2022/07/05 03:04:00;;;;;;;2.85;1.70;;;16.70;99.90;;;;;;5050779;28;20045;-62
2022/07/05 03:06:29;;;;;;;2.10;1.60;;;16.70;99.90;;;;;;5054891;28;20047;-62
2022/07/05 03:08:57;;;;;;;4.57;2.60;;;16.70;99.90;;;;;;5069510;28;20139;-61
2022/07/05 03:11:24;;;;;;;5.00;3.67;;;16.70;99.90;;;;;;5069461;28;20052;-62
2022/07/05 03:13:51;;;;;;;;;;;16.70;99.90;;;;;;5054144;28;20041;-62
2022/07/05 03:16:19;;;;;;;3.85;2.97;;;16.70;99.90;;;;;;5064545;28;19921;-61
2022/07/05 03:18:46;;;;;;;3.10;2.33;;;16.70;99.90;;;;;;5068144;28;20059;-62
2022/07/05 03:21:13;;;;;;;3.63;2.08;;;16.70;99.90;;;;;;5070231;28;20051;-62
2022/07/05 03:23:40;;;;;;;2.08;1.88;;;16.70;99.90;;;;;;5044508;28;20152;-62
2022/07/05 03:26:07;;;;;;;4.55;1.83;;;16.70;99.90;;;;;;5070344;28;20536;-62
2022/07/05 03:28:35;;;;;;;3.05;1.90;;;16.70;99.90;;;;;;5070446;28;20048;-62
2022/07/05 03:31:02;;;;;;;4.47;1.67;;;16.70;99.90;;;;;;5047395;28;20041;-62
2022/07/05 03:33:35;;;;;;;5.25;1.80;;;16.70;99.90;;;;;;5063023;28;20045;-62
2022/07/05 03:36:05;;;;;;;4.28;2.15;;;16.70;99.90;;;;;;5050155;28;20045;-62
2022/07/05 03:38:33;;;;;;;5.10;1.92;;;16.70;99.90;;;;;;5057892;28;20481;-62
2022/07/05 03:41:00;;;;;;;7.35;2.38;;;16.70;99.90;;;;;;5044709;28;20045;-62
2022/07/05 03:43:27;;;;;;;4.90;2.15;;;16.70;99.90;;;;;;5070315;28;20432;-62
2022/07/05 03:45:55;;;;;;;7.43;2.53;;;16.70;99.90;;;;;;5067875;28;20427;-62
2022/07/05 03:48:25;;;;;;;3.08;2.00;;;16.70;99.90;;;;;;5061169;28;20052;-62
2022/07/05 03:51:10;;;;;;;2.63;2.42;;;16.70;99.90;;;;;;5065113;28;20041;-62
2022/07/05 03:53:38;;;;;;;2.72;1.92;;;16.80;99.90;;;;;;5050098;28;20045;-62
2022/07/05 03:56:05;;;;;;;2.88;2.13;;;16.70;99.90;;;;;;5050195;28;20044;-62
2022/07/05 03:58:34;;;;;;;6.82;1.98;;;16.70;99.90;;;;;;5057739;28;20068;-62
2022/07/05 04:01:01;;;;;;;2.67;2.28;;;16.70;99.90;;;;;;5061300;28;20140;-62
2022/07/05 04:03:29;;;;;;;5.55;2.97;;;16.60;99.90;;;;;;5053546;28;20041;-62
2022/07/05 04:05:58;;;;;;;5.45;2.90;;;16.60;99.90;;;;;;5067235;28;20045;-62
2022/07/05 04:08:26;;;;;;;3.00;2.30;;;16.60;99.90;;;;;;5044893;28;20508;-62
2022/07/05 04:10:53;;;;;;;5.75;2.05;;;16.70;99.90;;;;;;5070870;28;20466;-61
2022/07/05 04:13:22;;;;;;;5.35;1.58;;;16.70;99.90;;;;;;5053067;28;20041;-62
2022/07/05 04:15:53;;;;;;;3.13;1.38;;;16.70;99.90;;;;;;5061078;28;20053;-62
2022/07/05 04:18:20;;;;;;;4.47;2.25;;;16.70;99.90;;;;;;5052858;28;20094;-62
2022/07/05 04:20:47;;;;;;;;;;;16.70;99.90;;;;;;5069980;28;20045;-62
2022/07/05 04:23:14;;;;;;;;;;;16.70;99.90;;;;;;5072821;28;19921;-62
2022/07/05 04:25:42;;;;;;;;;;;16.80;99.90;;;;;;5059603;28;20008;-62
2022/07/05 04:28:18;;;;;;;;;;;16.70;99.90;;;;;;5053951;28;19931;-62
2022/07/05 04:30:47;;;;;;;;;;;16.80;99.90;;;;;;5053779;28;20074;-62
2022/07/05 04:33:15;;;;;;;;;;;16.80;99.90;;;;;;5056907;28;19924;-62
2022/07/05 04:35:45;;;;;;;;;;;16.80;99.90;;;;;;5073638;28;20361;-62
2022/07/05 04:38:12;;;;;;;;;;;16.80;99.90;;;;;;5075056;28;20356;-62
2022/07/05 04:40:41;;;;;;;;;;;16.80;99.90;;;;;;5067965;28;20015;-62
2022/07/05 04:43:08;;;;;;;;;;;16.80;99.90;;;;;;5066205;28;20006;-62
2022/07/05 04:45:35;;;;;;;;;;;16.80;99.90;;;;;;5055103;28;20385;-62
2022/07/05 04:48:02;;;;;;;;;;;16.70;99.90;;;;;;5056603;28;19920;-62
2022/07/05 04:50:31;;;;;;;;;;;16.70;99.90;;;;;;5066034;28;19968;-62
2022/07/05 04:52:58;;;;;;;;;;;16.80;99.90;;;;;;5072807;28;19924;-62
2022/07/05 04:55:24;;;;;;;;;;;16.80;99.90;;;;;;5073727;28;19928;-62
2022/07/05 04:57:51;;;;;;;;;;;16.90;99.90;;;;;;5071778;28;19932;-62
2022/07/05 05:00:18;;;;;;;;;;;16.90;99.90;;;;;;5069090;28;19920;-62
2022/07/05 05:02:44;;;;;;;;;;;17.00;99.90;;;;;;5072176;28;19924;-62
2022/07/05 05:05:11;;;;;;;;;;;17.10;99.90;;;;;;5073399;28;19920;-62
2022/07/05 05:07:41;;;;;;;;;;;17.20;99.90;;;;;;5072959;28;19927;-62
2022/07/05 05:10:08;;;;;;;;;;;17.30;99.90;;;;;;5071925;28;19924;-62
2022/07/05 05:12:35;;;;;;;;;;;17.40;99.90;;;;;;5072982;28;20391;-63
2022/07/05 05:15:02;;;;;;;;;;;17.50;99.90;;;;;;5074133;28;19927;-62
2022/07/05 05:17:39;;;;;;;;;;;17.60;99.90;;;;;;5071712;28;20452;-63
2022/07/05 05:20:13;;;;;;;;;;;17.70;99.90;;;;;;5068485;28;19946;-62
2022/07/05 05:22:40;;;;;;;;;;;17.70;99.90;;;;;;5074068;28;19920;-62
2022/07/05 05:25:07;;;;;;;;;;;17.80;99.90;;;;;;5073775;28;19920;-63
2022/07/05 05:27:34;;;;;;;;;;;17.80;99.90;;;;;;5072767;28;20392;-63
2022/07/05 05:30:01;;;;;;;;;;;17.80;99.90;;;;;;5071701;28;19943;-63
2022/07/05 05:32:27;;;;;;;;;;;17.80;99.90;;;;;;5056347;28;19921;-63
2022/07/05 05:34:54;;;;;;;;;;;17.70;99.90;;;;;;5070609;28;19974;-63
2022/07/05 05:37:21;;;;;;;;;;;17.60;99.90;;;;;;5072814;28;19960;-63
2022/07/05 05:39:48;;;;;;;;;;;17.70;99.90;;;;;;5073335;28;19927;-63
2022/07/05 05:42:14;;;;;;;;;;;17.70;99.90;;;;;;5072946;28;20015;-62
2022/07/05 05:44:41;;;;;;;;;;;17.70;99.90;;;;;;5073271;28;19928;-63
2022/07/05 05:47:08;;;;;;;;;;;17.70;99.90;;;;;;5073470;28;20296;-63
2022/07/05 05:49:41;;;;;;;;;;;17.80;99.90;;;;;;5073403;28;19921;-63
2022/07/05 05:52:09;;;;;;;;;;;17.80;99.90;;;;;;5072061;28;19967;-63
2022/07/05 05:54:35;;;;;;;;;;;17.80;99.90;;;;;;5069677;28;19943;-63
2022/07/05 05:57:02;;;;;;;;;;;17.80;99.90;;;;;;5072597;28;20384;-63
2022/07/05 05:59:29;;;;;;;;;;;17.90;99.90;;;;;;5072264;28;20499;-63
2022/07/05 06:01:55;;;;;;;;;;;18.00;99.90;;;;;;5069968;28;19920;-63
2022/07/05 06:04:22;;;;;;;;;;;18.10;99.90;;;;;;5067213;28;20002;-63
2022/07/05 06:06:49;;;;;;;;;;;18.20;99.90;;;;;;5072623;28;20154;-63
2022/07/05 06:09:16;;;;;;;;;;;18.50;99.90;;;;;;5072783;28;19931;-63
2022/07/05 06:11:42;;;;;;;;;;;18.50;99.90;;;;;;5064476;28;19927;-63
2022/07/05 06:14:11;;;;;;;;;;;18.60;99.90;;;;;;5072955;28;19924;-63
2022/07/05 06:16:38;;;;;;;;;;;18.80;99.90;;;;;;5072660;28;19927;-63
2022/07/05 06:19:04;;;;;;;;;;;18.80;99.90;;;;;;5068575;28;19932;-63
2022/07/05 06:21:31;;;;;;;;;;;18.90;99.90;;;;;;5052800;28;19928;-63
2022/07/05 06:23:58;;;;;;;;;;;19.00;99.90;;;;;;5064320;28;19920;-63
2022/07/05 06:26:24;;;;;;;;;;;19.00;99.90;;;;;;5066815;28;20046;-63
2022/07/05 06:28:51;;;;;;;;;;;19.00;99.90;;;;;;5069935;28;19920;-63
2022/07/05 06:31:18;;;;;;;;;;;19.00;99.90;;;;;;5072445;28;19928;-63
2022/07/05 06:33:45;;;;;;;;;;;19.10;99.90;;;;;;5072992;28;20356;-63
2022/07/05 06:36:11;;;;;;;;;;;19.10;99.90;;;;;;5067863;28;19920;-63
2022/07/05 06:38:38;;;;;;;;;;;19.00;99.90;;;;;;5069069;28;19920;-63
2022/07/05 06:41:05;;;;;;;;;;;19.00;99.90;;;;;;5072025;28;19931;-63
2022/07/05 06:43:31;;;;;;;;;;;18.90;99.90;;;;;;5065575;28;19921;-63
2022/07/05 06:46:03;;;;;;;;;;;19.00;99.90;;;;;;5054593;28;20365;-63
2022/07/05 06:48:30;;;;;;;;;;;19.00;99.90;;;;;;5071314;28;19928;-63
2022/07/05 06:50:57;;;;;;;;;;;19.20;99.90;;;;;;5072360;28;19927;-63
2022/07/05 06:53:23;;;;;;;;;;;19.30;99.90;;;;;;5072018;28;19927;-63
2022/07/05 06:55:50;;;;;;;;;;;19.30;99.90;;;;;;5063608;28;19920;-63
2022/07/05 06:58:21;;;;;;;;;;;19.40;99.90;;;;;;5072296;28;19924;-63
2022/07/05 07:00:48;;;;;;;;;;;19.40;99.90;;;;;;5072070;28;19920;-63
2022/07/05 07:03:35;;;;;;;;;;;19.40;99.90;;;;;;5063865;28;19924;-63
2022/07/05 07:06:21;;;;;;;;;;;19.40;99.90;;;;;;5052390;28;19929;-63
2022/07/05 07:11:33;;;;;;;;;;;19.60;99.90;;;;;;5058244;28;20003;-63
2022/07/05 07:14:00;;;;;;;;;;;19.70;99.90;;;;;;5063616;28;19920;-63
2022/07/05 07:16:27;;;;;;;;;;;19.80;99.90;;;;;;5072199;28;20295;-63
2022/07/05 07:18:54;;;;;;;;;;;19.90;99.90;;;;;;5071938;28;20031;-63
2022/07/05 07:21:39;;;;;;;;;;;19.90;99.90;;;;;;5062812;28;19920;-63
2022/07/05 07:24:07;;;;;;;;;;;19.70;99.90;;;;;;5071849;28;19999;-63
2022/07/05 07:27:02;;;;;;;;;;;19.70;99.90;;;;;;5072006;28;19920;-63
2022/07/05 07:29:21;;;;;;;;;;;19.70;99.90;;;;;;5070813;28;19920;-63
2022/07/05 07:31:47;;;;;;;;;;;19.90;99.90;;;;;;5060939;28;20003;-63
2022/07/05 07:34:14;;;;;;;;;;;20.10;99.90;;;;;;5071775;28;20323;-63
2022/07/05 07:36:41;;;;;;;;;;;20.40;99.90;;;;;;5071194;28;19920;-63
2022/07/05 07:39:08;;;;;;;;;;;20.50;99.90;;;;;;5070802;28;19927;-63
2022/07/05 07:41:34;;;;;;;;;;;20.60;99.90;;;;;;5062434;28;19926;-63
2022/07/05 07:44:01;;;;;;;;;;;20.90;99.90;;;;;;5071759;28;19920;-63
2022/07/05 07:46:28;;;;;;;;;;;20.70;99.90;;;;;;5070950;28;19920;-63
2022/07/05 07:48:55;;;;;;;;;;;20.70;99.90;;;;;;5062992;28;19925;-63
2022/07/05 07:51:21;;;;;;;;;;;20.70;99.90;;;;;;5071348;28;19921;-62
2022/07/05 07:53:48;;;;;;;;;;;20.50;99.90;;;;;;5071224;28;19966;-62
2022/07/05 07:56:15;;;;;;;;;;;20.80;99.90;;;;;;5071018;28;19990;-63
2022/07/05 07:58:42;;;;;;;;;;;21.10;99.90;;;;;;5062573;28;19920;-63
2022/07/05 08:01:10;;;;;;;;;;;21.70;99.90;;;;;;5071101;28;19921;-63
2022/07/05 08:03:38;;;;;;;;;;;22.10;99.90;;;;;;5071594;28;19921;-62
2022/07/05 08:06:05;;;;;;;;;;;22.20;99.90;;;;;;5067628;28;19921;-62
2022/07/05 08:08:32;;;;;;;;;;;22.10;99.90;;;;;;5066670;28;19921;-62
2022/07/05 08:10:59;;;;;;;;;;;22.20;99.90;;;;;;5071141;28;20370;-63
2022/07/05 08:13:26;;;;;;;;;;;22.30;99.90;;;;;;5071042;28;19924;-63
2022/07/05 08:15:52;;;;;;;;;;;22.70;99.90;;;;;;5062881;28;20412;-63
2022/07/05 08:23:49;;;;;;;;;;;22.50;99.90;;;;;;5069202;28;20296;-63
2022/07/05 08:26:16;;;;;;;;;;;22.30;99.90;;;;;;5064929;28;20304;-63
2022/07/05 08:28:43;;;;;;;;;;;22.30;99.90;;;;;;5071202;28;19920;-63
2022/07/05 08:31:31;;;;;;;;;;;22.20;99.90;;;;;;5070667;28;19950;-63
2022/07/05 08:33:58;;;;;;;;;;;22.10;99.90;;;;;;5062713;28;20023;-63
2022/07/05 08:36:25;;;;;;;;;;;21.90;99.90;;;;;;5071228;28;19974;-63
2022/07/05 08:38:52;;;;;;;;;;;21.80;99.90;;;;;;5055262;22;19980;-65
2022/07/05 08:41:21;;;;;;;;;;;21.80;99.90;;;;;;5009935;28;20379;-65
2022/07/05 08:43:48;;;;;;;;;;;21.80;99.90;;;;;;5018960;28;19928;-65
2022/07/05 08:46:16;;;;;;;;;;;21.70;99.90;;;;;;5011286;28;20461;-65
2022/07/05 08:48:44;;;;;;;;;;;21.60;99.90;;;;;;5010130;28;19972;-65
2022/07/05 08:51:12;;;;;;;;;;;21.40;99.90;;;;;;5010915;28;19932;-65
2022/07/05 08:53:39;;;;;;;;;;;21.20;99.90;;;;;;5011033;28;19925;-65
2022/07/05 08:56:06;;;;;;;;;;;21.10;99.90;;;;;;5011431;28;19932;-65
2022/07/05 08:58:33;;;;;;;;;;;20.90;99.90;;;;;;5010241;28;19921;-64
2022/07/05 09:01:00;;;;;;;;;;;20.80;99.90;;;;;;4997536;28;19922;-65
2022/07/05 09:03:38;;;;;;;;;;;20.70;99.90;;;;;;4991884;28;19925;-65
2022/07/05 09:06:12;;;;;;;;;;;20.70;99.90;;;;;;4999456;28;19922;-65
2022/07/05 09:08:40;;;;;;;;;;;20.60;99.90;;;;;;5011583;28;19944;-65
2022/07/05 09:11:07;;;;;;;;;;;20.60;99.90;;;;;;5014483;28;20263;-65
2022/07/05 09:13:35;;;;;;;;;;;20.60;99.90;;;;;;5015002;28;19925;-65
2022/07/05 09:16:02;;;;;;;;;;;20.50;99.90;;;;;;5013563;28;19929;-64
2022/07/05 09:18:48;;;;;;;;;;;20.50;99.90;;;;;;5014789;28;19961;-65
2022/07/05 09:21:16;;;;;;;;;;;20.50;99.90;;;;;;5014090;28;19928;-65
2022/07/05 09:23:43;;;;;;;;;;;20.50;99.90;;;;;;5013415;28;20374;-67
2022/07/05 09:26:10;;;;;;;;;;;20.60;99.90;;;;;;5010142;28;19921;-67
2022/07/05 09:28:37;;;;;;;;;;;20.80;99.90;;;;;;5005271;28;19944;-67
2022/07/05 09:31:04;;;;;;;;;;;20.90;99.90;;;;;;5005139;28;19921;-67
2022/07/05 09:33:31;;;;;;;;;;;21.10;99.90;;;;;;5002061;28;19925;-66
2022/07/05 09:35:58;;;;;;;;;;;21.20;99.90;;;;;;5013615;28;19925;-66
2022/07/05 09:38:28;;;;;;;;;;;21.40;99.90;;;;;;5014326;28;19921;-67
2022/07/05 09:40:56;;;;;;;;;;;21.40;99.90;;;;;;5013922;28;19927;-67
2022/07/05 09:43:27;;;;;;;;;;;21.50;99.90;;;;;;5013272;28;19983;-67
2022/07/05 09:45:53;;;;;;;;;;;21.60;99.90;;;;;;5014114;28;19928;-67
2022/07/05 09:48:20;;;;;;;;;;;21.60;99.90;;;;;;5013071;28;19921;-67
2022/07/05 09:51:05;;;;;;;;;;;21.80;99.90;;;;;;5012769;28;19928;-67
2022/07/05 09:53:53;;;;;;;;;;;22.00;99.90;;;;;;5014029;28;19933;-67
2022/07/05 09:56:29;;;;;;;;;;;22.30;99.90;;;;;;5013218;28;20022;-67
2022/07/05 09:59:11;;;;;;;;;;;22.40;99.90;;;;;;5014101;28;19944;-67
2022/07/05 10:01:38;;;;;;;;;;;22.50;99.90;;;;;;5012982;28;19929;-67
2022/07/05 10:04:05;;;;;;;;;;;22.70;99.90;;;;;;4992154;28;19948;-67
2022/07/05 10:06:32;;;;;;;;;;;22.80;99.90;;;;;;5012978;28;20019;-66
2022/07/05 10:08:59;;;;;;;;;;;22.80;99.90;;;;;;5013333;28;19928;-66
2022/07/05 10:11:26;;;;;;;;;;;22.80;99.90;;;;;;5012573;28;20421;-67
2022/07/05 10:13:57;;;;;;;;;;;22.80;99.90;;;;;;4996015;28;20306;-66
2022/07/05 10:16:24;;;;;;;;;;;22.90;99.90;;;;;;5012704;28;19921;-66
2022/07/05 10:18:52;;;;;;;;;;;23.10;99.90;;;;;;5012115;28;20283;-67
2022/07/05 10:21:19;;;;;;;;;;;23.40;99.90;;;;;;5011525;28;19925;-66
2022/07/05 10:23:53;;;;;;;;;;;23.50;99.90;;;;;;5012357;28;19972;-67
2022/07/05 10:26:21;;;;;;;;;;;23.60;99.90;;;;;;5011011;28;19921;-67
2022/07/05 10:28:49;;;;;;;;;;;23.90;99.90;;;;;;4993639;28;20329;-67
2022/07/05 10:31:16;;;;;;;;;;;24.00;99.90;;;;;;4999424;28;19926;-66
2022/07/05 10:33:44;;;;;;;;;;;24.00;99.90;;;;;;5013347;28;19921;-67
2022/07/05 10:36:11;;;;;;;;;;;24.10;99.90;;;;;;5013323;28;19929;-67
2022/07/05 10:38:39;;;;;;;;;;;23.90;99.90;;;;;;5013014;28;19968;-67
2022/07/05 10:41:07;;;;;;;;;;;24.10;99.90;;;;;;5011872;28;19929;-67
2022/07/05 10:43:34;;;;;;;;;;;24.40;99.90;;;;;;5004212;28;19921;-67
2022/07/05 10:46:02;;;;;;;;;;;24.30;99.90;;;;;;5001836;28;20385;-67
2022/07/05 10:48:29;;;;;;;;;;;24.50;99.90;;;;;;5002846;28;20389;-67
2022/07/05 10:50:59;;;;;;;;;;;24.70;99.90;;;;;;5005030;28;19933;-67
2022/07/05 10:53:30;;;;;;;;;;;24.60;99.90;;;;;;5010949;28;19983;-67
2022/07/05 10:55:59;;;;;;;;;;;25.00;99.90;;;;;;5012976;28;20402;-67
2022/07/05 10:58:27;;;;;;;;;;;25.30;99.90;;;;;;5011332;28;20309;-67
2022/07/05 11:01:12;;;;;;;;;;;25.40;99.90;;;;;;5012557;28;20460;-67
2022/07/05 11:03:39;;;;;;;;;;;25.40;99.90;;;;;;5012950;28;20374;-67
2022/07/05 11:06:07;;;;;;;;;;;25.10;99.90;;;;;;5012919;28;19947;-67
2022/07/05 11:08:53;;;;;;;;;;;24.80;99.90;;;;;;5002830;28;19921;-67
2022/07/05 11:11:23;;;;;;;;;;;24.50;99.90;;;;;;5009109;28;20012;-67
2022/07/05 11:13:50;;;;;;;;;;;24.10;99.90;;;;;;5003467;28;19928;-67
2022/07/05 11:16:19;;;;;;;;;;;24.00;99.90;;;;;;5000700;28;19926;-67
2022/07/05 11:18:46;;;;;;;;;;;24.00;99.90;;;;;;5003552;28;20546;-67
2022/07/05 11:21:21;;;;;;;;;;;24.00;99.90;;;;;;4998969;28;19927;-67
2022/07/05 11:23:48;;;;;;;;;;;24.00;99.90;;;;;;4992407;28;19922;-67
2022/07/05 11:26:18;;;;;;;;;;;23.90;99.90;;;;;;4991004;28;20405;-68
2022/07/05 11:28:46;;;;;;;;;;;23.80;99.90;;;;;;5008351;28;20370;-67
2022/07/05 11:31:32;;;;;;;;;;;23.70;99.90;;;;;;5011523;28;19921;-67
2022/07/05 11:34:12;;;;;;;;;;;23.70;99.90;;;;;;5012419;28;19968;-67
2022/07/05 11:36:38;;;;;;;;;;;23.90;99.90;;;;;;5011071;28;19928;-67
2022/07/05 11:39:09;;;;;;;;;;;23.90;99.90;;;;;;5012133;28;19936;-67
2022/07/05 11:41:39;;;;;;;;;;;23.90;99.90;;;;;;5011959;28;19921;-67
2022/07/05 11:44:07;;;;;;;;;;;23.90;99.90;;;;;;5011175;28;19929;-67
2022/07/05 11:46:34;;;;;;;;;;;24.00;99.90;;;;;;5011915;28;19925;-66
2022/07/05 11:49:18;;;;;;;;;;;23.80;99.90;;;;;;5012235;28;19928;-67
2022/07/05 11:51:52;;;;;;;;;;;23.70;99.90;;;;;;5010652;28;19925;-67
2022/07/05 11:54:22;;;;;;;;;;;23.50;99.90;;;;;;5012080;28;19925;-67
2022/07/05 11:56:50;;;;;;;;;;;23.70;99.90;;;;;;5012099;28;19927;-67
2022/07/05 11:59:18;;;;;;;;;;;23.80;99.90;;;;;;5011847;28;20610;-67
2022/07/05 12:01:45;;;;;;;;;;;23.90;99.90;;;;;;5010408;28;19928;-67
2022/07/05 12:04:11;;;;;;;;;;;24.10;99.90;;;;;;5012277;28;20333;-67
2022/07/05 12:06:42;;;;;;;;;;;24.10;99.90;;;;;;5011850;28;19965;-67
2022/07/05 12:09:08;;;;;;;;;;;23.70;99.90;;;;;;5011212;28;19928;-67
2022/07/05 12:14:23;;;;;;;;;;;23.80;99.90;;;;;;5011880;28;19929;-67
2022/07/05 12:17:10;;;;;;;;;;;23.70;99.90;;;;;;5010788;28;19925;-67
2022/07/05 12:19:37;;;;;;;;;;;23.70;99.90;;;;;;5011874;28;20028;-67
2022/07/05 12:22:03;;;;;;;;;;;23.80;99.90;;;;;;5011507;28;20657;-67
2022/07/05 12:24:30;;;;;;;;;;;23.80;99.90;;;;;;5011180;28;19921;-67
2022/07/05 12:26:57;;;;;;;;;;;23.80;99.90;;;;;;5011566;28;19937;-67
2022/07/05 12:29:24;;;;;;;;;;;24.00;99.90;;;;;;5011860;28;19929;-65
2022/07/05 12:32:00;;;;;;;;;;;23.80;99.90;;;;;;5011310;28;19921;-67
2022/07/05 12:34:29;;;;;;;;;;;23.70;99.90;;;;;;5010783;28;19922;-67
2022/07/05 12:36:57;;;;;;;;;;;23.70;99.90;;;;;;5011667;28;20011;-67
2022/07/05 12:39:23;;;;;;;;;;;24.00;99.90;;;;;;5011643;28;19925;-66
2022/07/05 12:41:50;;;;;;;;;;;23.90;99.90;;;;;;5010370;28;19925;-66
2022/07/05 12:44:20;;;;;;;;;;;24.10;99.90;;;;;;5014454;28;20393;-67
2022/07/05 12:46:49;;;;;;;;;;;24.60;99.90;;;;;;5015315;28;19932;-67
2022/07/05 12:49:16;;;;;;;;;;;25.10;99.90;;;;;;5014345;28;19972;-67
2022/07/05 12:51:43;;;;;;;;;;;25.70;99.90;;;;;;5013689;28;20325;-67
2022/07/05 13:00:04;;;;;;;;;;;26.20;99.90;;;;;;5013955;28;19925;-67
2022/07/05 13:02:35;;;;;;;;;;;26.30;99.90;;;;;;5014000;28;20309;-66
2022/07/05 13:05:02;;;;;;;;;;;26.20;99.90;;;;;;5014943;28;19959;-67
2022/07/05 13:07:28;;;;;;;;;;;26.10;99.90;;;;;;5014803;28;19925;-67
2022/07/05 13:10:24;;;;;;;;;;;26.60;99.90;;;;;;5006797;28;20377;-67
2022/07/05 13:12:51;;;;;;;;;;;26.40;99.90;;;;;;5015067;28;19921;-67
2022/07/05 13:15:18;;;;;;;;;;;26.00;99.90;;;;;;5014978;28;19925;-67
2022/07/05 13:17:45;;;;;;;;;;;25.50;99.90;;;;;;5014206;28;20467;-67
2022/07/05 13:20:17;;;;;;;;;;;25.40;99.90;;;;;;5014358;28;19928;-66
2022/07/05 13:22:45;;;;;;;;;;;25.40;99.90;;;;;;5014864;28;19955;-67
2022/07/05 13:25:12;;;;;;;;;;;25.40;99.90;;;;;;5014549;28;19922;-67
2022/07/05 13:27:39;;;;;;;;;;;25.30;99.90;;;;;;5013633;28;19957;-67
2022/07/05 13:30:06;;;;;;;;;;;25.20;99.90;;;;;;5014279;28;20298;-67
2022/07/05 13:32:33;;;;;;;;;;;25.10;99.90;;;;;;5013503;28;19952;-66
2022/07/05 13:35:00;;;;;;;;;;;24.80;99.90;;;;;;5014673;28;19925;-67
2022/07/05 13:37:26;;;;;;;;;;;24.70;99.90;;;;;;5013520;28;19925;-67
2022/07/05 13:39:53;;;;;;;;;;;24.60;99.90;;;;;;5013512;28;20040;-67
2022/07/05 13:42:19;;;;;;;;;;;24.50;99.90;;;;;;5014488;28;19921;-67
2022/07/05 13:44:46;;;;;;;;;;;24.60;99.90;;;;;;5013184;28;20394;-67
2022/07/05 13:47:13;;;;;;;;;;;24.50;99.90;;;;;;5013919;28;19921;-67
2022/07/05 13:49:40;;;;;;;;;;;24.10;99.90;;;;;;5014157;28;19936;-66
2022/07/05 13:52:07;;;;;;;;;;;24.50;99.90;;;;;;5013142;28;19925;-65
2022/07/05 13:54:33;;;;;;;;;;;25.00;99.90;;;;;;5006873;28;19925;-66
2022/07/05 13:57:01;;;;;;;;;;;26.00;99.90;;;;;;4994421;28;20378;-67
2022/07/05 13:59:27;;;;;;;;;;;26.60;99.90;;;;;;4996641;28;19945;-67
2022/07/05 14:01:54;;;;;;;;;;;26.90;99.90;;;;;;5013446;28;20397;-67
2022/07/05 14:04:23;;;;;;;;;;;27.10;99.90;;;;;;5009619;28;19925;-66
2022/07/05 14:06:50;;;;;;;;;;;27.00;99.90;;;;;;5012976;28;19921;-67
2022/07/05 14:09:16;;;;;;;;;;;26.80;99.90;;;;;;5015716;28;20311;-67
2022/07/05 14:11:43;;;;;;;;;;;26.90;99.90;;;;;;5010988;28;20417;-66